Friday, April 20, 2018, 4:12 PM EDT
Back to Local

KBID, Block Island, Block Island State Airport

Location: Block Island, RI, United States Lat: 41.167
Local Time: 4:12 PM EDT (20:12 GMT) Lon: -71.567
Time Zone: US/Eastern Elev: 108 ft

Show me the last for .
Show Decoded

2018-04-20 14:56 METAR KBID 201856Z AUTO 27011G20KT 10SM FEW055 09/01 A3009 RMK AO2 SLP193
                 T00940006 =
2018-04-20 13:56 METAR KBID 201756Z AUTO 28014KT 10SM CLR 09/M01 A3008 RMK AO2 SLP191 6////
                 T00941006 10094 20028 53006 =
2018-04-20 12:56 METAR KBID 201656Z AUTO 30012G19KT 10SM CLR 08/M02 A3007 RMK AO2 SLP188
                 T00831017 =
2018-04-20 11:56 METAR KBID 201556Z AUTO 29012G17KT 10SM CLR 08/M01 A3007 RMK AO2 SLP186
                 T00781011 =
2018-04-20 10:56 METAR KBID 201456Z AUTO 30010G16KT 10SM CLR 07/M02 A3006 RMK AO2 SLP185 6////
                 T00671017 52015 =
2018-04-20 09:56 METAR KBID 201356Z AUTO 31010G19KT 10SM CLR 06/M03 A3005 RMK AO2 SLP180
                 T00561028 =
2018-04-20 08:56 METAR KBID 201256Z AUTO 30011G20KT 10SM CLR 04/M03 A3004 RMK AO2 SLP175
                 T00441028 =
2018-04-20 07:56 METAR KBID 201156Z AUTO 31014G20KT 10SM CLR 03/M03 A3002 RMK AO2 SLP170 6////
                 7//// T00281028 10033 20017 51021 =
2018-04-20 06:56 METAR KBID 201056Z AUTO 30011G21KT 10SM CLR 02/M04 A3000 RMK AO2 SLP164
                 T00221039 FZRANO =
2018-04-20 05:56 METAR KBID 200956Z AUTO 29013G20KT 10SM CLR 02/M03 A2998 RMK AO2 SLP157
                 T00171033 FZRANO TSNO =
2018-04-20 04:56 METAR KBID 200856Z AUTO 30012G20KT 10SM CLR 02/M03 A2996 RMK AO2 SLP149 6////
                 T00221028 53016 FZRANO =
2018-04-20 03:56 METAR KBID 200756Z AUTO 30011G16KT 10SM CLR 02/M03 A2994 RMK AO2 SLP142
                 T00221028 FZRANO =
2018-04-20 02:56 METAR KBID 200656Z AUTO 30012G20KT 10SM 03/M03 A2992 RMK AO2 SLP137 T00281028 =
2018-04-20 01:56 METAR KBID 200556Z AUTO 31010G17KT 10SM BKN080 03/M02 A2991 RMK AO2 SLP133
                 T00331017 10056 20033 50015 =
2018-04-20 00:56 METAR KBID 200456Z AUTO 31011G19KT 10SM OVC075 03/M01 A2991 RMK AO2 SLP133
                 T00331011 =
2018-04-19 23:56 METAR KBID 200356Z AUTO 31012G21KT 10SM BKN050 BKN065 OVC090 04/M01 A2989 RMK
                 AO2 SLP126 T00391011 400560039 =
2018-04-19 22:56 METAR KBID 200256Z AUTO 31014G19KT 10SM FEW037 BKN070 OVC085 04/M01 A2987 RMK
                 AO2 SLP118 T00441006 51024 =
2018-04-19 21:56 METAR KBID 200156Z AUTO 29007G14KT 10SM OVC085 05/01 A2986 RMK AO2 SLP114
                 T00500006 =
2018-04-19 20:56 METAR KBID 200056Z AUTO 29008KT 10SM FEW036 OVC075 05/02 A2983 RMK AO2 SLP106
                 T00500022 =
2018-04-19 20:09 METAR KBID 200009Z AUTO 27010KT 10SM BKN032 BKN043 OVC050 05/04 A2981 RMK AO2 =
2018-04-19 19:56 METAR KBID 192356Z AUTO 28009KT 10SM BKN029 BKN043 OVC050 05/03 A2980 RMK AO2
                 RAB15E28 SLP094 P0000 60004 T00500033 10056 20050 53019 =
2018-04-19 18:56 METAR KBID 192256Z AUTO 27009KT 10SM FEW029 OVC065 05/04 A2978 RMK AO2 SLP088
                 T00500039 =
2018-04-19 18:39 METAR KBID 192239Z AUTO 27009KT 10SM FEW022 SCT042 OVC065 05/04 A2977 RMK AO2 =
2018-04-19 17:56 METAR KBID 192156Z AUTO 28007KT 10SM BKN015 BKN022 OVC110 05/04 A2975 RMK AO2
                 RAE09 SLP079 P0000 T00500039 =
2018-04-19 17:03 METAR KBID 192103Z AUTO 32008KT 10SM -RA FEW008 SCT017 OVC110 06/04 A2973 RMK
                 AO2 P0000 =
2018-04-19 16:56 METAR KBID 192056Z AUTO 32008G15KT 10SM -RA SCT010 BKN017 OVC110 06/04 A2974 RMK
                 AO2 RAB13 SLP075 P0001 60004 T00560044 51014 =
2018-04-19 16:49 METAR KBID 192049Z AUTO 31009G14KT 10SM -RA SCT008 SCT012 OVC017 05/04 A2974 RMK
                 AO2 RAB13 P0001 =
2018-04-19 16:38 METAR KBID 192038Z AUTO 32007KT 9SM -RA BKN008 OVC015 05/04 A2974 RMK AO2 RAB13
                 CIG 007V012 P0001 =
2018-04-19 16:17 METAR KBID 192017Z AUTO 28009KT 8SM -RA SCT005 OVC015 05/05 A2974 RMK AO2 RAB13
                 P0000 =

Support USWX by starting your Amazon purchase here.